Time;durP1;ratioP1;P1;durP2;ratioP2;P2;SDS_P1;SDS_P2;PMS_P1;PMS_P2;Temp;Humidity;BMP_temperature;BMP_pressure;BME280_temperature;BME280_humidity;BME280_pressure;Samples;Min_cycle;Max_cycle;Signal;HPM_P1;HPM_P2
2021/05/19 00:00:07;;;;;;;4.80;1.88;;;;;;;19.26;48.17;99888.00;5007593;28;20084;-66
2021/05/19 00:02:35;;;;;;;5.38;2.20;;;;;;;19.21;48.50;99890.25;5007689;28;20050;-66
2021/05/19 00:05:04;;;;;;;6.32;2.17;;;;;;;19.19;48.65;99897.50;5007192;28;20100;-66
2021/05/19 00:07:31;;;;;;;7.88;2.35;;;;;;;19.15;48.90;99896.94;5007351;28;20045;-67
2021/05/19 00:09:58;;;;;;;4.75;1.92;;;;;;;19.12;49.12;99891.91;5007072;28;20083;-67
2021/05/19 00:12:25;;;;;;;4.75;2.10;;;;;;;19.09;49.25;99893.03;5007149;28;20085;-65
2021/05/19 00:14:52;;;;;;;11.00;2.10;;;;;;;19.10;49.22;99889.41;5007518;28;20192;-65
2021/05/19 00:17:18;;;;;;;5.32;1.50;;;;;;;19.19;48.77;99902.78;5007355;28;20392;-66
2021/05/19 00:19:46;;;;;;;6.38;1.90;;;;;;;19.11;49.09;99900.81;5007690;28;20863;-74
2021/05/19 00:22:12;;;;;;;11.13;2.13;;;;;;;19.01;49.18;99900.81;5012993;28;20077;-71
2021/05/19 00:24:39;;;;;;;5.15;2.35;;;;;;;18.98;49.13;99900.28;5013766;28;20484;-72
2021/05/19 00:27:06;;;;;;;15.70;2.47;;;;;;;18.96;49.26;99902.19;5012361;28;20042;-72
2021/05/19 00:29:33;;;;;;;6.20;1.95;;;;;;;18.82;49.58;99901.66;5013465;28;20552;-72
2021/05/19 00:32:00;;;;;;;5.68;1.85;;;;;;;18.92;49.55;99906.13;5012603;28;20069;-73
2021/05/19 00:34:27;;;;;;;7.50;2.78;;;;;;;18.82;49.92;99903.47;5012696;28;20124;-72
2021/05/19 00:36:54;;;;;;;5.28;2.15;;;;;;;18.75;50.27;99905.81;5012644;28;20120;-73
2021/05/19 00:39:21;;;;;;;6.95;2.45;;;;;;;18.76;50.13;99919.84;5012741;28;20038;-72
2021/05/19 00:41:48;;;;;;;7.88;2.95;;;;;;;18.75;50.11;99913.75;5012275;28;20038;-72
2021/05/19 00:44:17;;;;;;;6.25;2.40;;;;;;;18.80;49.85;99911.53;5011640;28;20168;-71
2021/05/19 00:46:46;;;;;;;7.82;2.38;;;;;;;18.74;49.99;99916.50;4985901;28;20045;-71
2021/05/19 00:49:14;;;;;;;8.02;2.53;;;;;;;18.69;50.02;99919.53;5012843;28;20504;-72
2021/05/19 00:51:42;;;;;;;10.00;2.88;;;;;;;18.59;50.29;99916.06;5000853;28;20456;-73
2021/05/19 00:54:10;;;;;;;5.75;2.00;;;;;;;18.54;50.64;99919.09;4995129;28;20133;-71
2021/05/19 00:56:37;;;;;;;11.45;2.65;;;;;;;18.48;51.14;99918.78;5012398;28;20475;-73
2021/05/19 00:59:04;;;;;;;15.07;2.63;;;;;;;18.54;50.83;99912.97;5009165;28;20073;-73
2021/05/19 01:01:36;;;;;;;7.13;2.38;;;;;;;18.56;51.10;99914.50;4994477;28;20053;-72
2021/05/19 01:04:07;;;;;;;7.20;2.33;;;;;;;18.48;51.22;99908.22;5009987;28;20033;-71
2021/05/19 01:07:14;;;;;;;5.15;2.08;;;;;;;18.52;51.11;99915.72;4975682;28;20430;-70
2021/05/19 01:09:41;;;;;;;17.88;2.58;;;;;;;18.45;51.48;99909.34;5012273;28;20042;-70
2021/05/19 01:12:17;;;;;;;5.65;2.67;;;;;;;18.50;51.71;99907.13;5012006;28;20052;-71
2021/05/19 01:14:46;;;;;;;6.18;2.00;;;;;;;18.55;51.32;99909.38;5009604;28;20064;-70
2021/05/19 01:17:14;;;;;;;7.13;1.95;;;;;;;18.57;51.31;99907.41;5011676;28;20042;-71
2021/05/19 01:19:46;;;;;;;11.63;2.80;;;;;;;18.61;50.86;99903.53;5012128;28;20042;-70
2021/05/19 01:22:30;;;;;;;5.82;2.50;;;;;;;18.55;51.32;99915.47;5012152;28;20124;-71
2021/05/19 01:24:59;;;;;;;4.60;2.00;;;;;;;18.58;51.04;99919.63;5012215;28;20038;-71
2021/05/19 01:27:28;;;;;;;8.10;2.25;;;;;;;18.51;51.28;99918.53;5010597;28;20424;-71
2021/05/19 01:29:58;;;;;;;7.97;3.10;;;;;;;18.57;51.13;99916.16;4999979;28;20053;-72
2021/05/19 01:32:26;;;;;;;4.20;2.05;;;;;;;18.60;50.77;99907.16;4994706;28;20050;-72
2021/05/19 01:34:53;;;;;;;8.98;2.42;;;;;;;18.55;50.98;99919.94;5012147;28;20382;-72
2021/05/19 01:37:21;;;;;;;7.15;2.10;;;;;;;18.49;51.15;99921.31;5012511;28;20034;-71
2021/05/19 01:39:53;;;;;;;14.60;3.13;;;;;;;18.47;51.35;99917.94;5000492;28;20046;-72
2021/05/19 01:42:20;;;;;;;6.10;2.60;;;;;;;18.43;51.56;99918.34;5011922;28;20080;-71
2021/05/19 01:44:54;;;;;;;6.50;2.30;;;;;;;18.50;51.30;99919.50;5011064;28;20046;-71
2021/05/19 01:47:43;;;;;;;7.53;2.38;;;;;;;18.49;51.21;99917.84;5006908;28;20489;-75
2021/05/19 01:50:13;;;;;;;4.20;1.67;;;;;;;18.45;51.02;99921.69;5011646;28;20103;-70
2021/05/19 01:52:44;;;;;;;6.32;2.45;;;;;;;18.45;51.02;99919.06;5012483;28;20049;-70
2021/05/19 01:55:15;;;;;;;10.90;2.33;;;;;;;18.52;50.78;99914.91;5012042;28;20052;-69
2021/05/19 01:57:45;;;;;;;14.10;2.50;;;;;;;18.55;51.00;99910.19;5010564;28;20560;-69
2021/05/19 02:00:16;;;;;;;6.40;1.92;;;;;;;18.48;50.83;99908.22;4994367;28;20045;-70
2021/05/19 02:02:54;;;;;;;7.88;2.95;;;;;;;18.43;51.03;99919.22;4994551;28;20046;-69
2021/05/19 02:05:23;;;;;;;8.27;2.40;;;;;;;18.35;51.55;99915.56;4993954;28;20069;-72
2021/05/19 02:07:51;;;;;;;6.75;2.10;;;;;;;18.38;51.63;99921.41;5004531;28;20042;-72
2021/05/19 02:10:22;;;;;;;6.45;2.50;;;;;;;18.52;51.11;99914.91;5005104;28;20042;-72
2021/05/19 02:12:49;;;;;;;9.95;3.28;;;;;;;18.47;51.28;99925.03;5010114;28;20046;-72
2021/05/19 02:15:18;;;;;;;6.38;2.47;;;;;;;18.44;51.33;99927.97;5012578;28;20451;-71
2021/05/19 02:17:48;;;;;;;8.45;2.03;;;;;;;18.36;51.55;99925.97;4994228;28;20141;-71
2021/05/19 02:20:21;;;;;;;3.97;2.00;;;;;;;18.26;51.86;99933.84;5010315;28;20037;-71
2021/05/19 02:22:49;;;;;;;8.02;2.47;;;;;;;18.25;51.84;99940.09;5009822;28;20123;-69
2021/05/19 02:25:19;;;;;;;6.28;2.92;;;;;;;18.35;51.53;99944.59;5011046;28;20038;-68
2021/05/19 02:27:47;;;;;;;8.30;2.35;;;;;;;18.23;52.12;99947.31;5013691;28;20053;-70
2021/05/19 02:30:18;;;;;;;3.95;2.00;;;;;;;18.21;52.39;99959.78;5014552;28;20072;-69
2021/05/19 02:32:46;;;;;;;9.55;2.40;;;;;;;18.13;52.74;99957.00;4997339;28;20046;-69
2021/05/19 02:35:16;;;;;;;13.65;3.35;;;;;;;18.07;52.80;99962.81;5014356;28;20041;-68
2021/05/19 02:37:48;;;;;;;13.13;2.95;;;;;;;17.90;53.57;99964.25;5013846;28;20046;-71
2021/05/19 02:40:16;;;;;;;4.65;1.85;;;;;;;17.95;53.58;99967.34;5015547;28;20058;-70
2021/05/19 02:42:45;;;;;;;10.77;3.25;;;;;;;17.90;53.67;99958.97;5015204;28;20042;-69
2021/05/19 02:45:17;;;;;;;5.68;2.55;;;;;;;17.77;54.29;99966.22;4997965;28;20132;-71
2021/05/19 02:47:44;;;;;;;13.30;2.58;;;;;;;17.65;54.79;99964.59;5015418;28;20057;-69
2021/05/19 02:50:13;;;;;;;9.25;2.78;;;;;;;17.58;55.45;99972.19;5014895;28;20062;-70
2021/05/19 02:52:40;;;;;;;6.00;2.65;;;;;;;17.61;55.50;99971.91;5015309;28;20389;-69
2021/05/19 02:55:08;;;;;;;7.97;2.95;;;;;;;17.65;55.50;99975.16;5015307;28;20524;-70
2021/05/19 02:57:34;;;;;;;5.60;2.47;;;;;;;17.74;55.08;99966.50;5015354;28;20121;-70
2021/05/19 03:00:05;;;;;;;7.45;3.00;;;;;;;17.75;54.52;99974.28;5015066;28;20104;-70
2021/05/19 03:02:32;;;;;;;7.13;3.08;;;;;;;17.78;54.59;99979.28;5014829;28;20509;-71
2021/05/19 03:04:59;;;;;;;7.07;3.15;;;;;;;17.76;54.61;99990.94;5013433;28;20088;-70
2021/05/19 03:07:26;;;;;;;11.07;4.00;;;;;;;17.84;54.21;99990.28;5007079;28;20073;-70
2021/05/19 03:09:53;;;;;;;8.48;3.17;;;;;;;17.85;54.22;99992.81;5006499;28;20096;-70
2021/05/19 03:12:20;;;;;;;10.73;3.17;;;;;;;17.74;54.79;99998.97;5006891;28;20041;-72
2021/05/19 03:14:48;;;;;;;17.27;4.50;;;;;;;17.69;55.03;99997.66;5006532;28;20494;-72
2021/05/19 03:17:15;;;;;;;7.47;3.13;;;;;;;17.63;55.36;100006.91;5007172;28;20555;-72
2021/05/19 03:19:42;;;;;;;8.18;2.80;;;;;;;17.65;55.54;100007.63;5006265;28;20145;-72
2021/05/19 03:22:09;;;;;;;4.57;2.80;;;;;;;17.63;55.57;100021.88;5006826;28;20100;-72
2021/05/19 03:24:36;;;;;;;11.90;4.53;;;;;;;17.58;56.09;100019.63;4986529;28;20045;-73
2021/05/19 03:27:03;;;;;;;7.97;2.78;;;;;;;17.74;55.58;100014.78;5006765;28;20033;-72
2021/05/19 03:29:30;;;;;;;7.57;3.10;;;;;;;17.70;55.71;100018.63;5006621;28;20125;-73
2021/05/19 03:31:57;;;;;;;5.57;2.70;;;;;;;17.69;55.83;100034.56;5006377;28;20077;-73
2021/05/19 03:34:24;;;;;;;4.85;3.00;;;;;;;17.74;55.59;100032.41;5006529;28;20587;-73
2021/05/19 03:36:51;;;;;;;6.30;2.42;;;;;;;17.80;55.23;100034.53;5006447;28;20042;-73
2021/05/19 03:39:17;;;;;;;4.43;2.42;;;;;;;17.60;56.09;100038.78;5005284;28;20472;-73
2021/05/19 03:41:44;;;;;;;13.15;3.75;;;;;;;17.57;56.19;100041.66;5006161;28;20042;-72
2021/05/19 03:44:11;;;;;;;9.73;3.38;;;;;;;17.59;56.16;100041.56;5006701;28;20049;-73
2021/05/19 03:46:39;;;;;;;11.70;3.47;;;;;;;17.53;56.46;100054.28;5005244;28;20548;-72
2021/05/19 03:49:06;;;;;;;7.03;2.70;;;;;;;17.56;56.27;100063.72;5005477;28;20046;-73
2021/05/19 03:51:34;;;;;;;5.75;3.88;;;;;;;17.52;56.42;100064.91;5006170;28;20100;-73
2021/05/19 03:54:03;;;;;;;8.07;3.10;;;;;;;17.43;56.81;100069.16;5006615;28;20053;-74
2021/05/19 03:56:30;;;;;;;8.27;3.53;;;;;;;17.48;56.68;100066.16;5006537;28;20038;-73
2021/05/19 03:58:58;;;;;;;8.15;3.92;;;;;;;17.53;56.58;100062.19;5006198;28;20038;-73
2021/05/19 04:01:25;;;;;;;7.45;3.33;;;;;;;17.47;56.92;100069.72;5006218;28;20492;-73
2021/05/19 04:03:52;;;;;;;6.80;3.65;;;;;;;17.45;57.05;100079.56;5007550;28;20045;-73
2021/05/19 04:06:22;;;;;;;6.72;4.35;;;;;;;17.33;57.34;100085.84;5007579;28;20124;-72
2021/05/19 04:08:49;;;;;;;7.57;3.58;;;;;;;17.39;57.43;100087.97;5007415;28;20069;-73
2021/05/19 04:11:16;;;;;;;5.13;3.45;;;;;;;17.39;57.29;100082.72;5006657;28;20070;-72
2021/05/19 04:13:43;;;;;;;6.53;3.33;;;;;;;17.45;57.22;100087.47;5005964;28;20523;-73
2021/05/19 04:16:11;;;;;;;5.50;3.45;;;;;;;17.42;57.23;100090.38;5005949;28;20038;-72
2021/05/19 04:18:38;;;;;;;6.65;4.15;;;;;;;17.28;58.07;100088.84;5005723;28;20444;-72
2021/05/19 04:21:06;;;;;;;11.07;4.75;;;;;;;17.32;57.80;100090.28;5005567;28;20049;-71
2021/05/19 04:23:34;;;;;;;13.00;4.30;;;;;;;17.30;58.05;100089.53;5005261;28;20045;-70
2021/05/19 04:26:02;;;;;;;9.02;4.00;;;;;;;17.25;58.07;100097.81;5005980;28;20092;-71
2021/05/19 04:28:29;;;;;;;8.35;4.32;;;;;;;17.27;58.14;100111.72;5005516;28;20042;-71
2021/05/19 04:30:56;;;;;;;16.83;5.28;;;;;;;17.27;58.23;100124.88;5003401;28;20046;-73
2021/05/19 04:33:23;;;;;;;6.28;3.70;;;;;;;17.29;57.51;100124.75;5005341;28;20082;-73
2021/05/19 04:35:51;;;;;;;8.38;4.95;;;;;;;17.31;58.03;100132.53;5007423;28;20136;-73
2021/05/19 04:38:18;;;;;;;9.38;4.85;;;;;;;17.21;58.37;100135.91;5010012;28;20591;-73
2021/05/19 04:40:46;;;;;;;10.82;4.15;;;;;;;17.22;58.41;100142.84;5011362;28;20073;-72
2021/05/19 04:43:14;;;;;;;11.73;5.65;;;;;;;17.16;58.84;100145.97;5012516;28;20049;-67
2021/05/19 04:45:41;;;;;;;10.27;4.50;;;;;;;17.21;58.83;100157.00;5012588;28;20109;-71
2021/05/19 04:48:08;;;;;;;7.40;5.20;;;;;;;17.05;59.53;100151.25;5007936;28;20076;-71
2021/05/19 04:50:36;;;;;;;6.20;5.03;;;;;;;17.11;59.46;100155.19;5012361;28;20045;-72
2021/05/19 04:53:07;;;;;;;6.70;4.72;;;;;;;17.09;59.63;100155.31;5012334;28;20077;-70
2021/05/19 04:55:35;;;;;;;13.30;5.93;;;;;;;16.96;60.38;100160.69;5013039;28;20386;-71
2021/05/19 04:58:03;;;;;;;12.23;6.15;;;;;;;16.87;60.88;100157.94;5012856;28;20061;-71
2021/05/19 05:00:32;;;;;;;16.90;5.45;;;;;;;16.97;60.70;100156.28;5010502;28;20456;-70
2021/05/19 05:02:59;;;;;;;10.10;5.95;;;;;;;17.02;60.92;100162.84;5009508;28;20529;-70
2021/05/19 05:05:26;;;;;;;10.63;6.18;;;;;;;16.79;61.95;100169.06;5011319;28;20037;-71
2021/05/19 05:07:53;;;;;;;14.73;6.38;;;;;;;16.80;61.86;100176.00;5009307;28;20034;-71
2021/05/19 05:10:20;;;;;;;8.82;5.38;;;;;;;16.69;62.44;100179.44;5011397;28;20049;-67
2021/05/19 05:12:49;;;;;;;9.50;5.82;;;;;;;16.82;62.23;100178.50;5012567;28;20378;-68
2021/05/19 05:15:18;;;;;;;7.68;6.65;;;;;;;17.01;61.37;100178.78;5012102;28;20046;-67
2021/05/19 05:17:45;;;;;;;7.25;5.03;;;;;;;17.14;61.14;100179.47;5012246;28;20092;-71
2021/05/19 05:20:13;;;;;;;15.15;6.05;;;;;;;17.23;60.84;100173.50;5009382;28;20042;-67
2021/05/19 05:22:40;;;;;;;14.90;5.32;;;;;;;17.22;60.86;100182.38;5008192;28;20511;-69
2021/05/19 05:25:08;;;;;;;6.80;6.00;;;;;;;17.15;61.07;100175.91;5011659;28;20037;-70
2021/05/19 05:27:35;;;;;;;7.55;5.80;;;;;;;17.20;61.16;100179.00;5011265;28;20038;-66
2021/05/19 05:30:03;;;;;;;18.73;6.28;;;;;;;17.03;61.64;100182.13;5010000;28;20125;-65
2021/05/19 05:32:30;;;;;;;9.15;5.55;;;;;;;17.00;61.50;100185.00;5006820;28;20046;-67
2021/05/19 05:34:57;;;;;;;7.88;4.60;;;;;;;17.06;61.47;100186.31;5009746;28;20046;-65
2021/05/19 05:37:24;;;;;;;7.72;4.70;;;;;;;17.04;61.61;100189.06;4992423;28;20042;-65
2021/05/19 05:39:51;;;;;;;6.90;4.30;;;;;;;17.17;61.32;100195.06;5008736;28;20054;-67
2021/05/19 05:42:18;;;;;;;8.77;4.10;;;;;;;17.13;61.10;100196.25;5009434;28;20559;-69
2021/05/19 05:44:46;;;;;;;3.78;3.42;;;;;;;17.25;60.10;100197.09;5009412;28;20061;-74
2021/05/19 05:47:13;;;;;;;6.88;3.35;;;;;;;17.06;60.70;100202.13;4993795;28;20053;-72
2021/05/19 05:49:40;;;;;;;8.43;4.35;;;;;;;17.10;60.77;100199.13;5010915;28;20096;-74
2021/05/19 05:52:07;;;;;;;9.10;4.13;;;;;;;17.23;60.40;100199.84;5010963;28;20045;-74
2021/05/19 05:54:34;;;;;;;11.13;5.13;;;;;;;17.27;60.36;100196.00;5011414;28;20390;-73
2021/05/19 05:57:01;;;;;;;6.28;4.80;;;;;;;17.22;60.59;100195.53;5011319;28;20097;-74
2021/05/19 05:59:29;;;;;;;14.38;4.63;;;;;;;17.27;60.39;100196.00;5010900;28;20514;-74
2021/05/19 06:01:56;;;;;;;5.97;4.15;;;;;;;17.53;59.47;100199.22;5012805;28;20053;-71
2021/05/19 06:04:23;;;;;;;6.18;4.30;;;;;;;17.40;59.52;100195.03;5010460;28;21542;-72
2021/05/19 06:06:50;;;;;;;10.77;3.55;;;;;;;17.43;59.78;100200.09;5007321;28;20096;-70
2021/05/19 06:09:17;;;;;;;7.38;4.55;;;;;;;17.53;59.01;100201.88;5005353;28;20128;-71
2021/05/19 06:11:44;;;;;;;6.55;3.90;;;;;;;17.76;57.71;100202.69;5006221;28;20045;-70
2021/05/19 06:14:11;;;;;;;8.07;4.28;;;;;;;18.36;56.85;100202.22;5004027;28;20057;-71
2021/05/19 06:16:39;;;;;;;7.40;4.75;;;;;;;19.17;54.79;100201.47;5005281;28;20043;-71
2021/05/19 06:19:06;;;;;;;9.10;3.13;;;;;;;19.52;53.52;100208.13;5006108;28;20042;-72
2021/05/19 06:21:33;;;;;;;6.82;3.88;;;;;;;19.16;53.46;100205.09;5006694;28;20045;-72
2021/05/19 06:24:01;;;;;;;6.82;3.97;;;;;;;19.26;52.81;100207.78;5006756;28;20034;-72
2021/05/19 06:26:28;;;;;;;5.10;3.92;;;;;;;19.50;52.18;100199.53;5006644;28;20053;-73
2021/05/19 06:28:55;;;;;;;5.28;4.05;;;;;;;18.60;54.58;100210.75;5006593;28;20519;-75
2021/05/19 06:31:22;;;;;;;4.63;4.13;;;;;;;18.94;53.99;100199.97;5004874;28;20034;-74
2021/05/19 06:33:49;;;;;;;4.47;3.80;;;;;;;18.99;52.99;100211.00;5007109;28;20048;-74
2021/05/19 06:36:21;;;;;;;5.75;3.83;;;;;;;18.55;53.51;100203.19;5005351;28;20397;-72
2021/05/19 06:38:48;;;;;;;5.13;3.85;;;;;;;18.80;52.92;100209.94;5006751;28;20042;-75
2021/05/19 06:41:15;;;;;;;6.68;3.58;;;;;;;18.65;53.20;100207.72;5011539;28;20449;-74
2021/05/19 06:43:42;;;;;;;6.05;4.15;;;;;;;18.64;53.85;100209.50;5015963;28;20500;-74
2021/05/19 06:46:09;;;;;;;5.07;4.32;;;;;;;18.75;53.24;100212.13;5014426;28;20124;-72
2021/05/19 06:48:37;;;;;;;5.13;4.47;;;;;;;18.86;52.78;100207.75;5015034;28;20065;-73
2021/05/19 06:51:05;;;;;;;4.28;2.72;;;;;;;19.65;51.10;100211.38;5015061;28;20076;-73
2021/05/19 06:53:32;;;;;;;3.83;2.75;;;;;;;19.12;51.44;100216.88;5014393;28;20061;-73
2021/05/19 06:56:00;;;;;;;4.25;2.42;;;;;;;19.20;49.63;100219.72;5014055;28;20041;-71
2021/05/19 06:58:27;;;;;;;2.53;2.10;;;;;;;19.57;49.19;100209.41;5014708;28;20065;-73
2021/05/19 07:00:54;;;;;;;8.18;2.13;;;;;;;20.01;48.46;100201.16;5014809;28;20042;-74
2021/05/19 07:03:21;;;;;;;5.50;2.58;;;;;;;20.44;45.76;100213.13;5013833;28;20106;-72
2021/05/19 07:05:48;;;;;;;3.42;2.13;;;;;;;20.84;44.70;100219.09;5014123;28;20045;-71
2021/05/19 07:08:15;;;;;;;4.90;2.78;;;;;;;21.45;44.48;100228.38;5014412;28;20129;-73
2021/05/19 07:10:42;;;;;;;5.68;3.25;;;;;;;21.77;40.52;100237.69;5013776;28;20041;-75
2021/05/19 07:13:09;;;;;;;9.02;2.78;;;;;;;21.60;40.55;100234.03;5011334;28;20078;-77
2021/05/19 07:15:39;;;;;;;23.67;3.63;;;;;;;22.75;39.06;100229.69;4994471;28;20045;-77
2021/05/19 07:18:07;;;;;;;4.55;3.25;;;;;;;23.15;38.85;100233.59;5014106;28;20116;-77
2021/05/19 07:20:40;;;;;;;6.18;3.17;;;;;;;23.90;37.03;100235.56;5014797;28;20050;-79
2021/05/19 07:23:07;;;;;;;3.85;2.90;;;;;;;24.45;36.17;100227.88;5013780;28;20049;-78
2021/05/19 07:25:35;;;;;;;6.57;3.65;;;;;;;25.19;35.56;100219.75;5006631;28;20069;-78
2021/05/19 07:28:04;;;;;;;5.43;4.18;;;;;;;24.85;35.38;100222.66;5007481;28;20515;-81
2021/05/19 07:30:31;;;;;;;5.65;5.15;;;;;;;24.63;35.77;100216.19;5005893;28;20037;-78
2021/05/19 07:32:59;;;;;;;3.33;3.03;;;;;;;24.30;36.48;100221.50;5007313;28;20054;-77
2021/05/19 07:35:26;;;;;;;4.35;2.63;;;;;;;24.38;35.68;100218.84;5005139;28;20065;-77
2021/05/19 07:37:54;;;;;;;3.10;2.90;;;;;;;24.92;34.92;100221.78;5007265;28;20041;-80
2021/05/19 07:40:22;;;;;;;4.45;1.80;;;;;;;25.30;33.50;100224.72;5006175;28;20449;-80
2021/05/19 07:42:49;;;;;;;2.05;1.23;;;;;;;25.29;32.89;100221.22;5008369;28;20068;-78
2021/05/19 07:45:17;;;;;;;4.47;1.95;;;;;;;24.95;34.43;100229.47;5006584;28;20131;-76
2021/05/19 07:47:42;;;;;;;1.42;1.00;;;;;;;25.26;33.16;100226.09;5006896;28;20061;-80
2021/05/19 07:50:09;;;;;;;1.25;1.15;;;;;;;25.35;32.80;100230.38;5007239;28;20041;-79
2021/05/19 07:52:35;;;;;;;4.80;2.15;;;;;;;25.54;32.03;100224.63;5006875;28;20030;-80
2021/05/19 07:55:04;;;;;;;3.78;1.35;;;;;;;25.37;33.23;100217.69;5006195;28;20088;-81
2021/05/19 07:57:47;;;;;;;4.85;1.17;;;;;;;25.64;32.38;100223.59;5006794;28;20044;-81
2021/05/19 08:00:22;;;;;;;5.70;1.10;;;;;;;25.81;32.31;100219.84;5008333;28;20038;-76
2021/05/19 08:02:48;;;;;;;3.60;1.02;;;;;;;26.08;31.75;100222.00;5006952;28;20045;-74
2021/05/19 08:05:14;;;;;;;2.20;1.10;;;;;;;25.88;32.44;100233.31;4996986;28;20037;-80
2021/05/19 08:07:40;;;;;;;3.80;1.08;;;;;;;25.82;32.15;100235.69;5008346;28;20026;-79
2021/05/19 08:10:06;;;;;;;5.82;0.93;;;;;;;25.69;31.79;100232.72;4995592;28;20092;-81
2021/05/19 08:12:32;;;;;;;8.10;1.80;;;;;;;25.63;31.41;100238.78;5006358;28;20117;-77
2021/05/19 08:14:59;;;;;;;1.60;0.90;;;;;;;25.65;31.65;100231.41;5006054;28;20152;-79
2021/05/19 08:17:25;;;;;;;2.88;1.30;;;;;;;25.43;31.75;100232.19;5004987;28;20377;-75
2021/05/19 08:19:50;;;;;;;3.90;0.90;;;;;;;26.43;30.59;100227.78;5006291;28;20046;-80
2021/05/19 08:22:18;;;;;;;9.40;1.10;;;;;;;26.49;29.94;100224.38;5006162;28;20444;-79
2021/05/19 08:24:45;;;;;;;2.00;1.10;;;;;;;26.08;30.44;100226.50;5005975;28;20137;-79
2021/05/19 08:27:12;;;;;;;1.27;0.93;;;;;;;25.78;31.72;100225.50;5006487;28;20160;-83
2021/05/19 08:29:40;;;;;;;1.48;1.10;;;;;;;25.53;31.87;100228.28;5007252;28;20048;-80
2021/05/19 08:32:07;;;;;;;1.27;1.00;;;;;;;25.46;31.63;100229.16;5007391;28;20037;-80
2021/05/19 08:34:34;;;;;;;1.58;0.88;;;;;;;25.54;31.72;100235.28;5006016;28;20033;-77
2021/05/19 08:37:02;;;;;;;2.72;1.02;;;;;;;25.55;31.52;100234.28;5006786;28;20400;-78
2021/05/19 08:39:29;;;;;;;3.05;1.33;;;;;;;25.01;31.60;100223.44;5005629;28;20149;-77
2021/05/19 08:41:56;;;;;;;1.35;0.70;;;;;;;25.01;32.02;100233.28;5006276;28;20397;-64
2021/05/19 08:44:26;;;;;;;7.07;1.58;;;;;;;24.67;32.86;100234.34;5005972;28;20158;-62
2021/05/19 08:46:56;;;;;;;1.30;0.95;;;;;;;25.08;32.36;100223.63;5005879;28;20133;-63
2021/05/19 08:49:25;;;;;;;1.90;0.98;;;;;;;25.24;32.03;100223.56;5005748;28;20171;-65
2021/05/19 08:51:54;;;;;;;1.85;0.90;;;;;;;24.45;33.06;100229.66;5005631;28;20497;-63
2021/05/19 08:54:23;;;;;;;3.85;1.20;;;;;;;24.66;32.67;100229.16;5006127;28;20535;-64
2021/05/19 08:56:51;;;;;;;1.38;0.70;;;;;;;24.71;32.42;100226.81;5005698;28;20132;-64
2021/05/19 08:59:19;;;;;;;2.70;0.70;;;;;;;24.32;32.04;100227.47;5005617;28;20040;-64
2021/05/19 09:01:49;;;;;;;2.65;0.90;;;;;;;24.48;32.00;100230.19;5005828;28;20042;-66
2021/05/19 09:04:22;;;;;;;4.32;0.70;;;;;;;23.99;32.51;100240.75;5005520;28;20046;-67
2021/05/19 09:07:02;;;;;;;1.80;1.00;;;;;;;23.58;33.19;100236.28;5005874;28;20050;-64
2021/05/19 09:09:31;;;;;;;1.98;0.98;;;;;;;23.37;34.31;100231.38;5005099;28;20137;-63
2021/05/19 09:12:08;;;;;;;2.30;0.70;;;;;;;23.15;34.62;100227.44;5004493;28;20583;-62
2021/05/19 09:14:38;;;;;;;0.73;0.40;;;;;;;23.16;33.38;100227.28;5004801;28;20048;-65
2021/05/19 09:17:22;;;;;;;0.60;0.50;;;;;;;22.85;34.01;100234.03;5009784;28;20042;-65
2021/05/19 09:20:14;;;;;;;3.05;0.80;;;;;;;23.09;34.16;100225.44;5008944;28;20125;-65
2021/05/19 09:22:46;;;;;;;1.33;0.85;;;;;;;23.02;34.32;100235.03;5005491;28;20045;-66
2021/05/19 09:25:19;;;;;;;1.50;0.50;;;;;;;22.54;33.72;100223.06;5004741;28;20061;-65
2021/05/19 09:27:49;;;;;;;1.35;0.73;;;;;;;22.23;34.63;100216.31;5010563;28;20042;-65
2021/05/19 09:30:34;;;;;;;2.45;0.80;;;;;;;22.20;34.72;100210.47;5011697;28;20061;-66
2021/05/19 09:33:21;;;;;;;3.85;1.38;;;;;;;22.14;33.31;100214.56;5005549;28;20050;-66
2021/05/19 09:36:19;;;;;;;2.25;0.73;;;;;;;22.19;33.58;100214.13;5008525;28;20080;-67
2021/05/19 09:38:52;;;;;;;7.47;0.98;;;;;;;21.88;33.56;100219.75;5000718;28;20057;-65
2021/05/19 09:41:35;;;;;;;1.90;0.60;;;;;;;21.97;34.47;100205.59;4987111;28;20192;-67
2021/05/19 09:44:06;;;;;;;4.35;0.63;;;;;;;22.15;34.31;100212.75;5007061;28;20208;-67
2021/05/19 09:46:36;;;;;;;1.45;0.70;;;;;;;21.83;35.14;100211.41;5006272;28;20045;-66
2021/05/19 09:49:21;;;;;;;5.80;0.80;;;;;;;21.72;34.66;100208.97;5005567;28;20105;-66
2021/05/19 09:52:13;;;;;;;3.95;0.80;;;;;;;21.70;34.01;100214.44;5003342;28;20042;-67
2021/05/19 09:54:44;;;;;;;2.17;1.10;;;;;;;21.53;33.68;100211.75;5003837;28;20041;-66
2021/05/19 09:57:17;;;;;;;0.73;0.50;;;;;;;21.75;32.78;100213.97;5004104;28;20057;-66
2021/05/19 09:59:49;;;;;;;1.30;0.60;;;;;;;21.54;32.70;100213.41;5004556;28;20054;-66
2021/05/19 10:02:16;;;;;;;3.92;1.15;;;;;;;21.50;34.25;100212.03;5004770;28;20045;-67
2021/05/19 10:04:49;;;;;;;3.65;1.02;;;;;;;21.69;34.40;100209.28;5004528;28;20074;-67
2021/05/19 10:07:18;;;;;;;1.63;0.75;;;;;;;21.34;35.23;100212.66;5004572;28;20115;-67
2021/05/19 10:09:46;;;;;;;3.95;0.93;;;;;;;21.32;36.00;100214.66;5006058;28;20146;-67
2021/05/19 10:12:14;;;;;;;6.68;0.95;;;;;;;21.44;35.60;100195.72;5005332;28;20088;-66
2021/05/19 10:14:41;;;;;;;0.70;0.70;;;;;;;21.63;34.75;100199.28;5006558;28;20050;-64
2021/05/19 10:17:11;;;;;;;1.50;0.90;;;;;;;21.37;34.73;100197.31;5009431;28;20053;-64
2021/05/19 10:19:50;;;;;;;2.83;0.68;;;;;;;21.48;34.39;100198.09;5004369;28;20515;-66
2021/05/19 10:22:21;;;;;;;1.25;0.80;;;;;;;21.63;33.63;100193.97;5004706;28;20595;-66
2021/05/19 10:25:02;;;;;;;5.55;1.40;;;;;;;21.61;34.58;100194.09;5002705;28;20440;-67
2021/05/19 10:27:55;;;;;;;3.72;0.75;;;;;;;21.74;34.01;100192.91;5003010;28;20526;-67
2021/05/19 10:30:33;;;;;;;3.70;0.98;;;;;;;21.64;34.11;100191.16;4994251;28;20485;-66
2021/05/19 10:33:01;;;;;;;0.50;0.50;;;;;;;21.64;33.73;100183.19;5007805;28;20038;-66
2021/05/19 10:35:37;;;;;;;2.67;0.75;;;;;;;21.61;33.75;100193.25;5007789;28;20092;-66
2021/05/19 10:38:29;;;;;;;0.85;0.60;;;;;;;21.44;34.53;100174.50;5004097;28;20045;-66
2021/05/19 10:40:59;;;;;;;3.97;0.85;;;;;;;21.45;33.96;100164.75;5004186;28;20060;-67
2021/05/19 10:43:46;;;;;;;1.33;0.98;;;;;;;21.67;35.06;100166.13;5003099;28;20511;-66
2021/05/19 10:46:14;;;;;;;1.30;0.57;;;;;;;21.57;35.31;100168.00;5005091;28;20400;-67
2021/05/19 10:48:52;;;;;;;0.85;0.63;;;;;;;21.68;34.67;100168.66;5005321;28;20054;-66
2021/05/19 10:51:36;;;;;;;0.98;0.50;;;;;;;21.81;33.76;100168.28;5008878;28;20151;-66
2021/05/19 11:00:09;;;;;;;0.43;0.43;;;;;;;21.78;33.44;100157.13;5006538;28;20499;-65
2021/05/19 11:02:54;;;;;;;2.20;0.47;;;;;;;21.80;33.18;100149.88;5007860;28;20049;-65
2021/05/19 11:05:22;;;;;;;3.35;0.70;;;;;;;21.68;33.58;100159.88;5006643;28;20046;-65
2021/05/19 11:08:11;;;;;;;1.77;0.60;;;;;;;21.68;34.12;100146.59;5011004;28;20046;-66
2021/05/19 11:10:46;;;;;;;2.03;0.70;;;;;;;21.73;33.91;100149.59;5012855;28;20444;-65
2021/05/19 11:13:14;;;;;;;2.13;0.63;;;;;;;21.87;33.63;100140.31;5010058;28;20046;-65
2021/05/19 11:15:58;;;;;;;1.25;0.50;;;;;;;21.81;33.39;100140.91;5007802;28;20078;-64
2021/05/19 11:21:02;;;;;;;1.55;0.60;;;;;;;21.73;33.37;100133.69;5006032;28;20050;-66
2021/05/19 11:23:30;;;;;;;3.10;0.70;;;;;;;21.85;33.37;100136.97;4991048;28;20137;-67
2021/05/19 11:26:16;;;;;;;2.25;0.77;;;;;;;21.72;33.87;100126.72;5011723;28;20058;-67
2021/05/19 11:28:44;;;;;;;2.97;0.85;;;;;;;21.70;33.41;100134.84;5011572;28;20118;-68
2021/05/19 11:31:17;;;;;;;1.30;0.70;;;;;;;21.91;33.58;100125.75;5011764;28;20450;-68
2021/05/19 11:33:57;;;;;;;1.00;0.70;;;;;;;21.73;34.07;100122.25;5012085;28;20042;-66
2021/05/19 11:36:46;;;;;;;0.82;0.70;;;;;;;21.85;33.95;100123.72;5010115;28;20526;-66
2021/05/19 11:39:27;;;;;;;1.60;0.52;;;;;;;21.74;34.09;100115.97;5012978;28;20069;-66
2021/05/19 11:42:15;;;;;;;2.30;0.88;;;;;;;21.74;33.44;100119.47;5012755;28;20127;-65
2021/05/19 11:44:50;;;;;;;0.60;0.50;;;;;;;21.90;32.85;100109.00;5009671;28;20488;-68
2021/05/19 11:47:37;;;;;;;1.05;0.80;;;;;;;22.06;33.05;100107.47;5012056;28;20042;-70